Time;durP1;ratioP1;P1;durP2;ratioP2;P2;SDS_P1;SDS_P2;PMS_P1;PMS_P2;Temp;Humidity;BMP_temperature;BMP_pressure;BME280_temperature;BME280_humidity;BME280_pressure;Samples;Min_cycle;Max_cycle;Signal;HPM_P1;HPM_P2
2022/01/25 00:08:51;;;;;;;5.6;4.2;;;;;;;-1.81;92.92578;950.9547;;;;
2022/01/25 00:26:25;;;;;;;8.3;4.7;;;;;;;-1.96;94.27832;951.0072;;;;
2022/01/25 00:28:50;;;;;;;9.5;5.1;;;;;;;-2.01;94.3584;951.0381;;;;
2022/01/25 00:31:13;;;;;;;9.5;5.3;;;;;;;-2.04;94.25098;951.0436;;;;
2022/01/25 00:33:39;;;;;;;9;5.9;;;;;;;-1.94;94.17285;950.9742;;;;
2022/01/25 00:36:04;;;;;;;8.8;5.5;;;;;;;-1.97;93.96582;951.0214;;;;
2022/01/25 00:38:29;;;;;;;9.5;5.3;;;;;;;-1.82;93.67773;950.9674;;;;
2022/01/25 00:40:54;;;;;;;9.8;5.3;;;;;;;-1.82;93.20117;951.0108;;;;
2022/01/25 00:43:23;;;;;;;7.8;4.8;;;;;;;-1.86;92.59473;950.9694;;;;
2022/01/25 00:45:48;;;;;;;8.9;5.7;;;;;;;-1.92;92.5918;950.9498;;;;
2022/01/25 00:48:19;;;;;;;10.9;5.6;;;;;;;-1.97;92.65723;950.9762;;;;
2022/01/25 00:50:41;;;;;;;8;4.9;;;;;;;-1.9;92.90625;951.02;;;;
2022/01/25 00:55:32;;;;;;;9.1;5.7;;;;;;;-1.93;92.91113;951.0145;;;;
2022/01/25 00:57:57;;;;;;;8.8;5.3;;;;;;;-2.06;92.90527;951.0092;;;;
2022/01/25 01:00:23;;;;;;;9.1;5.5;;;;;;;-2.13;93.19922;951.0193;;;;
2022/01/25 01:02:48;;;;;;;8.2;4.8;;;;;;;-2.19;94.10352;951.0502;;;;
2022/01/25 01:05:17;;;;;;;7.1;4.6;;;;;;;-2.09;93.9502;950.9773;;;;
2022/01/25 01:07:43;;;;;;;8.3;4.5;;;;;;;-2.07;93.89844;950.9988;;;;
2022/01/25 01:10:09;;;;;;;6.9;4.3;;;;;;;-2.06;93.93652;951.0655;;;;
2022/01/25 01:13:07;;;;;;;7.5;4.1;;;;;;;-2.08;93.85254;950.9205;;;;
2022/01/25 01:15:09;;;;;;;6.8;4.2;;;;;;;-2.17;93.66602;950.9971;;;;
2022/01/25 01:28:52;;;;;;;6.7;4.3;;;;;;;-2.2;94.05664;951.0117;;;;
2022/01/25 01:29:47;;;;;;;6.7;4.3;;;;;;;-2.05;92.90723;950.9288;;;;
2022/01/25 01:32:21;;;;;;;6.7;4.4;;;;;;;-2.1;92.81738;950.948;;;;
2022/01/25 01:37:25;;;;;;;8.2;5.2;;;;;;;-1.97;92.92285;950.8304;;;;
2022/01/25 01:39:56;;;;;;;9.3;5.2;;;;;;;-2.04;92.83203;950.8438;;;;
2022/01/25 01:42:14;;;;;;;6.8;4.5;;;;;;;-2.11;92.9707;950.8879;;;;
2022/01/25 01:44:13;;;;;;;6.7;4.6;;;;;;;-2.16;93.50391;950.8994;;;;
2022/01/25 01:46:44;;;;;;;8.9;5.5;;;;;;;-2.17;93.91016;950.8583;;;;
2022/01/25 01:49:06;;;;;;;12.1;5.4;;;;;;;-2.06;93.78125;950.7736;;;;
2022/01/25 01:51:33;;;;;;;9.4;4.8;;;;;;;-2.01;93.93555;950.8083;;;;
2022/01/25 01:53:56;;;;;;;6.7;3.9;;;;;;;-1.96;93.34668;950.8521;;;;
2022/01/25 01:56:24;;;;;;;8.4;4.1;;;;;;;-1.93;93.27734;950.8116;;;;
2022/01/25 01:58:49;;;;;;;7.9;4;;;;;;;-1.87;92.9248;950.7844;;;;
2022/01/25 02:01:19;;;;;;;7.2;3.8;;;;;;;-1.94;92.4873;950.842;;;;
2022/01/25 02:03:44;;;;;;;6.4;3.9;;;;;;;-2.02;92.26855;950.8528;;;;
2022/01/25 02:06:12;;;;;;;5.6;3.9;;;;;;;-2.15;92.00977;950.7567;;;;
2022/01/25 02:08:41;;;;;;;6.2;3.4;;;;;;;-2.19;92.35645;950.7255;;;;
2022/01/25 02:11:07;;;;;;;5.3;3.7;;;;;;;-2.29;92.64258;950.7969;;;;
2022/01/25 02:13:33;;;;;;;7.1;3.6;;;;;;;-2.34;93.14258;950.8158;;;;
2022/01/25 02:16:08;;;;;;;4.7;3.2;;;;;;;-2.32;93.40137;950.754;;;;
2022/01/25 02:23:25;;;;;;;3.2;2.3;;;;;;;-2.05;93.39258;950.7568;;;;
2022/01/25 02:25:50;;;;;;;3.4;2.6;;;;;;;-1.98;92.44434;950.6726;;;;
2022/01/25 02:28:15;;;;;;;4.8;2.8;;;;;;;-1.98;92.58887;950.7434;;;;
2022/01/25 02:30:41;;;;;;;4.7;3;;;;;;;-2.11;92.66016;950.7942;;;;
2022/01/25 02:33:06;;;;;;;4.2;2.6;;;;;;;-2.21;93.16992;950.8074;;;;
2022/01/25 02:35:33;;;;;;;3.8;2.9;;;;;;;-2.16;92.86133;950.7371;;;;
2022/01/25 02:37:58;;;;;;;4.7;3.2;;;;;;;-2.12;92.33691;950.7814;;;;
2022/01/25 02:40:27;;;;;;;4.7;3.2;;;;;;;-2.18;92.43359;950.7592;;;;
2022/01/25 02:42:54;;;;;;;5;3.1;;;;;;;-2.17;92.63574;950.8176;;;;
2022/01/25 02:45:19;;;;;;;4.3;2.4;;;;;;;-2.27;92.72461;950.8094;;;;
2022/01/25 02:50:11;;;;;;;3.7;2.7;;;;;;;-2.09;92.31836;950.748;;;;
2022/01/25 02:52:38;;;;;;;4.2;2.6;;;;;;;-1.98;91.58008;950.7569;;;;
2022/01/25 02:55:03;;;;;;;3.9;2.7;;;;;;;-2.01;90.97656;950.7712;;;;
2022/01/25 02:57:31;;;;;;;4.1;2.9;;;;;;;-2.12;90.96289;950.7711;;;;
2022/01/25 02:59:56;;;;;;;3.7;2.9;;;;;;;-2.15;90.78906;950.8052;;;;
2022/01/25 03:02:23;;;;;;;4.1;2.9;;;;;;;-2.19;90.81445;950.7344;;;;
2022/01/25 03:04:48;;;;;;;4.3;3;;;;;;;-2.26;90.93359;950.7603;;;;
2022/01/25 03:07:16;;;;;;;4.4;2.8;;;;;;;-2.37;91.36035;950.7809;;;;
2022/01/25 03:09:41;;;;;;;3.9;2.8;;;;;;;-2.38;91.84766;950.7336;;;;
2022/01/25 03:12:10;;;;;;;4.4;2.9;;;;;;;-2.51;92.46191;950.7631;;;;
2022/01/25 03:14:36;;;;;;;3.3;2.5;;;;;;;-2.39;92.71875;950.7606;;;;
2022/01/25 03:17:11;;;;;;;3;2.6;;;;;;;-2.47;92.61426;950.6727;;;;
2022/01/25 03:19:44;;;;;;;4.1;2.9;;;;;;;-2.48;92.38867;950.7308;;;;
2022/01/25 03:21:49;;;;;;;3.7;2.2;;;;;;;-2.48;92.25781;950.7275;;;;
2022/01/25 03:24:17;;;;;;;4;2.8;;;;;;;-2.55;92.47461;950.7141;;;;
2022/01/25 03:26:42;;;;;;;3.9;2.9;;;;;;;-2.57;92.75586;950.7595;;;;
2022/01/25 03:29:08;;;;;;;4.9;3.6;;;;;;;-2.42;92.47949;950.6872;;;;
2022/01/25 03:31:33;;;;;;;4.9;3.5;;;;;;;-2.42;92.22559;950.7245;;;;
2022/01/25 03:34:01;;;;;;;4.5;3.5;;;;;;;-2.42;92.09473;950.7255;;;;
2022/01/25 03:36:26;;;;;;;4.3;3.2;;;;;;;-2.44;92.13477;950.5845;;;;
2022/01/25 03:38:52;;;;;;;5.1;3.2;;;;;;;-2.41;92.24023;950.6724;;;;
2022/01/25 03:41:17;;;;;;;4.2;3.3;;;;;;;-2.42;92.03711;950.6465;;;;
2022/01/25 03:43:52;;;;;;;3.7;3;;;;;;;-2.49;91.74609;950.6826;;;;
2022/01/25 03:46:15;;;;;;;4.5;3;;;;;;;-2.64;92.07813;950.687;;;;
2022/01/25 03:51:01;;;;;;;3.7;2.8;;;;;;;-2.68;93.54199;950.6661;;;;
2022/01/25 03:53:27;;;;;;;3.9;2.8;;;;;;;-2.58;93.46289;950.5981;;;;
2022/01/25 03:55:52;;;;;;;4.1;2.7;;;;;;;-2.5;93.05957;950.5789;;;;
2022/01/25 03:58:20;;;;;;;3.8;2.5;;;;;;;-2.47;92.63574;950.5906;;;;
2022/01/25 09:18:59;;;;;;;3.7;2.2;;;;;;;3.1;69.12305;950.4421;;;;
2022/01/25 09:21:31;;;;;;;11.8;7.4;;;;;;;3.65;68.16797;950.4428;;;;
2022/01/25 09:23:58;;;;;;;11.8;8.4;;;;;;;3.6;68.7207;950.4995;;;;
2022/01/25 09:26:27;;;;;;;11;7.9;;;;;;;3.69;68.56543;950.4977;;;;
2022/01/25 09:28:59;;;;;;;10.1;7.4;;;;;;;3.85;68.55957;950.4409;;;;
2022/01/25 09:31:31;;;;;;;9.6;7.2;;;;;;;4;68.53809;950.4353;;;;
2022/01/25 09:33:56;;;;;;;7.9;5.6;;;;;;;4.11;68.36523;950.4345;;;;
2022/01/25 09:36:23;;;;;;;6.5;5;;;;;;;4.11;68.12891;950.4213;;;;
2022/01/25 09:38:47;;;;;;;6.1;5.2;;;;;;;4.22;68.48438;950.3547;;;;
2022/01/25 09:41:17;;;;;;;7.4;5.4;;;;;;;3.91;69.42383;950.3685;;;;
2022/01/25 09:43:46;;;;;;;7.4;5;;;;;;;4.05;69.31152;950.4061;;;;
2022/01/25 09:46:18;;;;;;;7.1;5.2;;;;;;;4.47;68.61523;950.3837;;;;
2022/01/25 09:48:46;;;;;;;8.2;5.6;;;;;;;4.69;67.60254;950.3505;;;;
2022/01/25 09:51:11;;;;;;;7.2;5.8;;;;;;;4.68;67.62207;950.3363;;;;
2022/01/25 09:53:41;;;;;;;6.8;4.6;;;;;;;4.52;67.33887;950.4006;;;;
2022/01/25 09:56:06;;;;;;;5.3;4;;;;;;;4.59;67.71191;950.4304;;;;
2022/01/25 09:58:34;;;;;;;5.1;3.6;;;;;;;4.77;67.1084;950.4348;;;;
2022/01/25 10:01:01;;;;;;;4;2.9;;;;;;;4.76;66.12695;950.4739;;;;
2022/01/25 10:03:31;;;;;;;6;4.2;;;;;;;4.94;66.40234;950.5062;;;;
2022/01/25 10:06:00;;;;;;;5.4;3.5;;;;;;;4.71;64.50781;950.4863;;;;
2022/01/25 10:08:24;;;;;;;5.8;3.4;;;;;;;4.83;64.84082;950.4735;;;;
2022/01/25 10:10:51;;;;;;;4.2;2.9;;;;;;;5.06;64.91992;950.4821;;;;
2022/01/25 10:13:17;;;;;;;3.9;2.7;;;;;;;5.4;64.00195;950.421;;;;
2022/01/25 10:15:46;;;;;;;4;2.8;;;;;;;5.55;62.55664;950.3967;;;;
2022/01/25 10:18:17;;;;;;;3.8;2.9;;;;;;;5.62;62.64746;950.312;;;;
2022/01/25 10:20:42;;;;;;;4.7;3;;;;;;;5.74;62.65332;950.3832;;;;
2022/01/25 10:23:07;;;;;;;4.6;2.4;;;;;;;5.85;62.97461;950.3973;;;;
2022/01/25 10:25:32;;;;;;;2.9;2.2;;;;;;;5.93;62.69336;950.3077;;;;
2022/01/25 10:28:11;;;;;;;3.8;2.4;;;;;;;6.05;62.75488;950.3209;;;;
2022/01/25 10:30:22;;;;;;;4.2;2.2;;;;;;;6.14;63.04102;950.2612;;;;
2022/01/25 10:32:50;;;;;;;3.1;1.5;;;;;;;6.38;61.98926;950.288;;;;
2022/01/25 10:35:16;;;;;;;2.9;1.8;;;;;;;6.36;62.06641;950.2912;;;;
2022/01/25 10:37:40;;;;;;;4.1;1.8;;;;;;;6.3;61.81934;950.3192;;;;
2022/01/25 10:40:05;;;;;;;1.5;1.3;;;;;;;6.37;61.28711;950.3328;;;;
2022/01/25 10:42:34;;;;;;;1.9;1.4;;;;;;;6.4;62.20898;950.2977;;;;
2022/01/25 10:44:57;;;;;;;1.8;1.5;;;;;;;6.23;62.18262;950.2338;;;;
2022/01/25 10:47:24;;;;;;;3.1;2;;;;;;;6.4;62.07324;950.2581;;;;
2022/01/25 10:49:49;;;;;;;2.3;1.6;;;;;;;6.51;61.54395;950.2332;;;;
2022/01/25 10:52:14;;;;;;;3.1;1.8;;;;;;;6.54;62.61328;950.2164;;;;
2022/01/25 10:54:39;;;;;;;7.5;3.8;;;;;;;6.48;64.04004;950.1592;;;;
2022/01/25 10:57:06;;;;;;;5.3;4.5;;;;;;;6.45;65.28027;950.15;;;;
2022/01/25 10:59:36;;;;;;;6.3;4.7;;;;;;;6.38;65.43848;950.1725;;;;
2022/01/25 11:01:58;;;;;;;6.8;4.9;;;;;;;6.31;65.93652;950.0778;;;;
2022/01/25 11:04:24;;;;;;;10.2;6.1;;;;;;;6.23;65.88965;950.0566;;;;
2022/01/25 11:06:49;;;;;;;8.4;6.3;;;;;;;6.24;66.0498;950.0492;;;;
2022/01/25 11:09:17;;;;;;;8.4;5.6;;;;;;;6.09;66.76172;950.0178;;;;
2022/01/25 11:11:45;;;;;;;8.7;5.7;;;;;;;5.92;66.96094;949.998;;;;
2022/01/25 11:16:36;;;;;;;10.1;6.3;;;;;;;6.02;66.97754;949.9419;;;;
2022/01/25 11:19:06;;;;;;;10.6;6.1;;;;;;;6.17;66.35645;949.9311;;;;
2022/01/25 11:21:31;;;;;;;9.3;6.1;;;;;;;6.19;66.23438;949.8491;;;;
2022/01/25 11:23:59;;;;;;;10.6;6.2;;;;;;;6.48;66.18945;949.8491;;;;
2022/01/25 11:26:25;;;;;;;8.7;5.4;;;;;;;6.37;65.5293;949.8052;;;;
2022/01/25 11:28:50;;;;;;;7.5;5.1;;;;;;;6.36;65.87695;949.77;;;;
2022/01/25 11:31:15;;;;;;;7.6;5.1;;;;;;;6.52;65.08789;949.7597;;;;
2022/01/25 11:33:44;;;;;;;6.3;4.3;;;;;;;6.62;64.6709;949.7473;;;;
2022/01/25 11:36:09;;;;;;;7.5;4.3;;;;;;;6.81;64.24805;949.6418;;;;
2022/01/25 11:38:36;;;;;;;4.8;3.8;;;;;;;6.95;63.37402;949.6342;;;;
2022/01/25 11:41:01;;;;;;;4.8;4;;;;;;;7.18;63.83789;949.6042;;;;
2022/01/25 11:43:26;;;;;;;5.4;4;;;;;;;7.21;63.52637;949.567;;;;
2022/01/25 11:45:57;;;;;;;5.5;3.8;;;;;;;7.16;63.59766;949.617;;;;
2022/01/25 11:48:24;;;;;;;5;3.6;;;;;;;7.26;62.66016;949.5673;;;;
2022/01/25 11:50:49;;;;;;;5.6;3.8;;;;;;;7.29;63.19824;949.5884;;;;
2022/01/25 11:53:15;;;;;;;5;3.1;;;;;;;7.37;60.95508;949.6138;;;;
2022/01/25 11:55:41;;;;;;;4.4;3;;;;;;;7.74;60.51953;949.5496;;;;
2022/01/25 11:58:05;;;;;;;3.6;2.8;;;;;;;9.06;57.09668;949.5544;;;;
2022/01/25 12:00:30;;;;;;;4.2;2.9;;;;;;;12.47;48.47754;949.4268;;;;
2022/01/25 12:02:57;;;;;;;3.8;2.5;;;;;;;14.86;41.0293;949.3845;;;;
2022/01/25 12:05:25;;;;;;;3;2.1;;;;;;;15.82;38.26563;949.3709;;;;
2022/01/25 12:07:53;;;;;;;3.2;2.1;;;;;;;17.63;34.86133;949.3747;;;;
2022/01/25 12:10:22;;;;;;;3.1;1.9;;;;;;;17.6;34.88184;949.3325;;;;
2022/01/25 12:12:46;;;;;;;2.4;1.6;;;;;;;19.71;31.50488;949.2217;;;;
2022/01/25 12:15:19;;;;;;;3.8;1.6;;;;;;;19.41;31.20313;949.2093;;;;
2022/01/25 12:17:44;;;;;;;2.1;1.6;;;;;;;19.59;30.84375;949.2198;;;;
2022/01/25 12:20:09;;;;;;;2.3;1.5;;;;;;;18.03;32.40723;949.2294;;;;
2022/01/25 12:22:38;;;;;;;2;1.5;;;;;;;20.31;30.18164;949.1603;;;;
2022/01/25 12:25:07;;;;;;;2.6;1.8;;;;;;;22.85;27.32422;949.1386;;;;
2022/01/25 12:27:29;;;;;;;2.9;1.7;;;;;;;22.91;26.4248;949.0577;;;;
2022/01/25 12:29:52;;;;;;;3;1.7;;;;;;;23.83;24.92578;949.0392;;;;
2022/01/25 12:32:21;;;;;;;2;1.4;;;;;;;24.25;23.54688;948.9899;;;;
2022/01/25 12:34:46;;;;;;;3.3;1.7;;;;;;;24.69;23.95996;948.9724;;;;
2022/01/25 12:37:11;;;;;;;3;1.4;;;;;;;26.2;21.91113;948.8994;;;;
2022/01/25 12:39:37;;;;;;;2.7;1.3;;;;;;;27.07;20.85059;948.8228;;;;
2022/01/25 12:42:02;;;;;;;2.2;1.2;;;;;;;27.93;19.86914;948.7869;;;;
2022/01/25 12:44:27;;;;;;;1.5;1;;;;;;;27.78;19.47168;948.7664;;;;
2022/01/25 12:46:52;;;;;;;2.1;1.1;;;;;;;28.83;18.32617;948.8198;;;;
2022/01/25 12:49:25;;;;;;;1.3;1.1;;;;;;;29.44;18.21973;948.7408;;;;
2022/01/25 12:51:45;;;;;;;2.1;1.4;;;;;;;29.81;17.40039;948.7126;;;;
2022/01/25 12:54:10;;;;;;;2.3;1.6;;;;;;;30;17.10938;948.6912;;;;
2022/01/25 12:56:35;;;;;;;3.6;1.4;;;;;;;29.55;17.16406;948.6774;;;;
2022/01/25 12:59:04;;;;;;;1.9;1.5;;;;;;;29.21;17.3418;948.625;;;;
2022/01/25 13:01:29;;;;;;;3;1.9;;;;;;;29.34;17.57227;948.6039;;;;
2022/01/25 13:03:57;;;;;;;1.8;1.4;;;;;;;29.78;17.26758;948.605;;;;
2022/01/25 13:06:22;;;;;;;2.2;1.3;;;;;;;29.8;17.10156;948.5684;;;;
2022/01/25 13:08:52;;;;;;;1.8;1.1;;;;;;;27.8;19.21094;948.5403;;;;
2022/01/25 13:11:16;;;;;;;3;1.4;;;;;;;28.31;18.70996;948.5439;;;;
2022/01/25 13:13:45;;;;;;;3;1.2;;;;;;;28.79;18.50391;948.5632;;;;
2022/01/25 13:16:11;;;;;;;3;1.3;;;;;;;29.15;18.31543;948.5388;;;;
2022/01/25 13:18:38;;;;;;;0.9;0.9;;;;;;;29.95;16.89258;948.5402;;;;
2022/01/25 13:21:03;;;;;;;2.9;1.7;;;;;;;29.87;17.17578;948.5053;;;;
2022/01/25 13:23:28;;;;;;;0.6;0.6;;;;;;;30.26;16.66504;948.4572;;;;
2022/01/25 13:25:58;;;;;;;0.8;0.7;;;;;;;30.01;16.89453;948.4461;;;;
2022/01/25 13:28:34;;;;;;;2.9;1.2;;;;;;;29.04;17.44238;948.4641;;;;
2022/01/25 13:30:49;;;;;;;2.3;1.6;;;;;;;29.68;17.19336;948.3698;;;;
2022/01/25 13:33:17;;;;;;;1.3;1;;;;;;;29.95;16.62988;948.3792;;;;
2022/01/25 13:35:47;;;;;;;1.5;0.9;;;;;;;29.25;17.33105;948.348;;;;
2022/01/25 13:38:06;;;;;;;0.9;0.9;;;;;;;27.45;18.79199;948.3003;;;;
2022/01/25 13:40:37;;;;;;;0.9;0.8;;;;;;;26.1;19.94238;948.2878;;;;
2022/01/25 13:43:19;;;;;;;2.1;0.8;;;;;;;26.37;20.03711;948.2756;;;;
2022/01/25 13:47:47;;;;;;;1;0.7;;;;;;;25.66;19.89941;948.2238;;;;
2022/01/25 13:50:12;;;;;;;0.6;0.5;;;;;;;25.08;20.8418;948.2333;;;;
2022/01/25 13:52:37;;;;;;;0.4;0.4;;;;;;;23.63;22.11426;948.2192;;;;
2022/01/25 13:55:02;;;;;;;0.7;0.7;;;;;;;22.71;24.33496;948.1883;;;;
2022/01/25 13:57:28;;;;;;;0.7;0.7;;;;;;;21.42;25.96094;948.2112;;;;
2022/01/25 13:59:55;;;;;;;7.3;1.6;;;;;;;23.19;25.05469;948.1369;;;;
2022/01/25 14:02:29;;;;;;;2;0.9;;;;;;;25.1;22.62402;948.0933;;;;
2022/01/25 14:04:55;;;;;;;3.3;1.9;;;;;;;25.63;22.14355;948.1096;;;;
2022/01/25 14:07:22;;;;;;;0.6;0.6;;;;;;;23.48;23.6709;948.1403;;;;
2022/01/25 14:09:49;;;;;;;0.6;0.5;;;;;;;21.27;26.52637;948.1586;;;;
2022/01/25 14:22:11;;;;;;;7.5;2.3;;;;;;;25.85;21.96484;948.0414;;;;
2022/01/25 14:24:19;;;;;;;4.5;2.3;;;;;;;26.3;21.73828;947.9978;;;;
2022/01/25 14:26:44;;;;;;;4.5;2;;;;;;;26.59;21.7998;948.0676;;;;
2022/01/25 14:29:14;;;;;;;2.2;1.8;;;;;;;26.65;21.50684;948.0609;;;;
2022/01/25 14:31:35;;;;;;;4.5;2.3;;;;;;;26.74;21.58203;948.0453;;;;
2022/01/25 14:34:01;;;;;;;6.1;4.6;;;;;;;26.87;21.20898;948.0831;;;;
2022/01/25 14:36:26;;;;;;;7.7;2.8;;;;;;;27.06;21.4668;948.0536;;;;
2022/01/25 14:38:54;;;;;;;6.1;2.6;;;;;;;26.9;21.7793;948.0787;;;;
2022/01/25 14:41:17;;;;;;;3.3;2.2;;;;;;;26.96;21.50977;948.0461;;;;
2022/01/25 14:43:47;;;;;;;3.1;1.9;;;;;;;27.05;21.22949;948.0864;;;;
2022/01/25 14:46:09;;;;;;;3.5;2.6;;;;;;;26.88;21.39941;948.1189;;;;
2022/01/25 14:48:37;;;;;;;3.9;2.6;;;;;;;26.75;21.47559;948.0753;;;;
2022/01/25 14:51:00;;;;;;;2.8;1.8;;;;;;;25.98;22.96387;948.1359;;;;
2022/01/25 14:53:24;;;;;;;2.9;1.6;;;;;;;25.53;23.34375;948.1069;;;;
2022/01/25 14:55:51;;;;;;;1.5;1.4;;;;;;;25.59;22.84961;948.1017;;;;
2022/01/25 14:59:22;;;;;;;2.2;1.6;;;;;;;25.4;22.94629;948.1378;;;;
2022/01/25 15:00:48;;;;;;;4.5;2.7;;;;;;;24.62;23.48438;948.1358;;;;
2022/01/25 15:03:13;;;;;;;8.2;3.3;;;;;;;23.34;25.13281;948.1473;;;;
2022/01/25 15:05:42;;;;;;;7.8;3.1;;;;;;;21.59;26.97852;948.1697;;;;
2022/01/25 15:08:07;;;;;;;3.9;1.8;;;;;;;20.24;29.24316;948.2211;;;;
2022/01/25 15:10:34;;;;;;;4.9;2;;;;;;;18.17;32.5918;948.2302;;;;
2022/01/25 15:12:59;;;;;;;4.7;3;;;;;;;15.07;38.26855;948.325;;;;
2022/01/25 15:15:27;;;;;;;4.8;2.8;;;;;;;12.97;43.73438;948.4367;;;;
2022/01/25 15:17:49;;;;;;;5.5;3.5;;;;;;;11.85;47.05762;948.4152;;;;
2022/01/25 15:20:18;;;;;;;6.1;3.6;;;;;;;11.61;47.93555;948.3453;;;;
2022/01/25 15:22:46;;;;;;;5.1;3.3;;;;;;;11.05;49.36035;948.4725;;;;
2022/01/25 15:25:12;;;;;;;4.6;3;;;;;;;10.77;50.5625;948.5289;;;;
2022/01/25 15:27:38;;;;;;;8.4;4.4;;;;;;;10.36;52.66992;948.5303;;;;
2022/01/25 15:30:03;;;;;;;7.4;3.8;;;;;;;10.1;53.25488;948.509;;;;
2022/01/25 15:32:28;;;;;;;4.2;2.7;;;;;;;9.71;54.0166;948.5748;;;;
2022/01/25 15:34:53;;;;;;;4;2.7;;;;;;;9.27;54.97559;948.5531;;;;
2022/01/25 15:37:20;;;;;;;3.6;2.6;;;;;;;8.84;56.75098;948.6399;;;;
2022/01/25 15:39:45;;;;;;;3.9;2.6;;;;;;;8.51;57.96973;948.6364;;;;
2022/01/25 15:42:15;;;;;;;3.5;2.5;;;;;;;8.39;58.48633;948.6294;;;;
2022/01/25 15:44:42;;;;;;;2.8;2.5;;;;;;;8.09;60.1377;948.7059;;;;
2022/01/25 15:47:05;;;;;;;4.1;2.6;;;;;;;8.03;61.08105;948.7122;;;;
2022/01/25 15:49:31;;;;;;;4.2;3.2;;;;;;;7.9;61.68848;948.7217;;;;
2022/01/25 15:51:56;;;;;;;6.3;4.1;;;;;;;7.83;61.98438;948.7287;;;;
2022/01/25 15:54:23;;;;;;;7.8;5.7;;;;;;;7.7;62.49902;948.7014;;;;
2022/01/25 15:56:48;;;;;;;6.2;4.6;;;;;;;7.5;63.27441;948.7695;;;;
2022/01/25 15:59:17;;;;;;;5.2;3.9;;;;;;;7.42;62.99023;948.8124;;;;
2022/01/25 16:01:38;;;;;;;6.2;4.8;;;;;;;7.31;63.12207;948.8597;;;;
2022/01/25 16:04:06;;;;;;;6.2;4.3;;;;;;;7.26;63.50977;948.905;;;;
2022/01/25 16:06:31;;;;;;;5.3;4.2;;;;;;;7.27;63.55859;948.9303;;;;
2022/01/25 16:08:56;;;;;;;5.6;4;;;;;;;7.04;64.2373;948.985;;;;
2022/01/25 16:11:23;;;;;;;6;4.8;;;;;;;6.93;64.07324;949.011;;;;
2022/01/25 16:13:50;;;;;;;10.9;8.3;;;;;;;7.03;64.67578;949.0057;;;;
2022/01/25 16:16:15;;;;;;;34.9;31.3;;;;;;;6.82;65.29102;949.0574;;;;
2022/01/25 16:18:41;;;;;;;11.2;9.5;;;;;;;6.5;66.51953;949.1566;;;;
2022/01/25 16:21:07;;;;;;;14.5;12.5;;;;;;;6.3;66.69238;949.0875;;;;
2022/01/25 16:23:32;;;;;;;23.5;17.4;;;;;;;6.45;67.10059;949.1079;;;;
2022/01/25 16:25:58;;;;;;;14.1;11;;;;;;;5.95;68.43359;949.2191;;;;
2022/01/25 16:28:25;;;;;;;15.8;10.5;;;;;;;6.03;68.0625;949.1841;;;;
2022/01/25 16:30:50;;;;;;;13.8;10.3;;;;;;;5.99;67.72949;949.2397;;;;
2022/01/25 16:33:17;;;;;;;14.6;9.5;;;;;;;6.09;68.60352;949.3306;;;;
2022/01/25 16:35:42;;;;;;;29;16.3;;;;;;;5.58;70.62109;949.3831;;;;
2022/01/25 16:38:08;;;;;;;14;9.3;;;;;;;5.66;69.4375;949.391;;;;
2022/01/25 16:40:35;;;;;;;17.8;10.8;;;;;;;5.47;69.80273;949.3855;;;;
2022/01/25 16:43:00;;;;;;;19.4;12.5;;;;;;;5.59;69.09961;949.4455;;;;
2022/01/25 16:45:27;;;;;;;19.5;12.4;;;;;;;5.39;69.46094;949.4556;;;;
2022/01/25 16:47:51;;;;;;;17.7;11.7;;;;;;;5.36;69.10742;949.4384;;;;
2022/01/25 16:50:18;;;;;;;15.1;10.7;;;;;;;5.44;68.97363;949.4698;;;;
2022/01/25 16:52:43;;;;;;;16;10.6;;;;;;;5.26;69.22656;949.4802;;;;
2022/01/25 16:55:10;;;;;;;16.7;12;;;;;;;5.19;69.22559;949.5319;;;;
2022/01/25 16:57:35;;;;;;;19.3;13.9;;;;;;;5.17;69.21289;949.4719;;;;
2022/01/25 17:00:01;;;;;;;18.4;13.5;;;;;;;5.22;68.9834;949.4585;;;;
2022/01/25 17:02:27;;;;;;;19.5;13.5;;;;;;;5.21;68.75488;949.4698;;;;
2022/01/25 17:04:52;;;;;;;20.4;14.1;;;;;;;4.89;68.99902;949.3477;;;;
2022/01/25 17:07:17;;;;;;;22.6;14.3;;;;;;;4.84;69.5293;949.3741;;;;
2022/01/25 17:09:43;;;;;;;21.1;13.9;;;;;;;4.88;69.44629;949.4465;;;;
2022/01/25 17:12:08;;;;;;;21.6;14.6;;;;;;;4.85;69.54395;949.4291;;;;
2022/01/25 17:14:33;;;;;;;25.1;15.9;;;;;;;4.76;69.6416;949.4341;;;;
2022/01/25 17:16:59;;;;;;;23.1;15.9;;;;;;;4.71;69.81445;949.4293;;;;
2022/01/25 17:19:25;;;;;;;22.6;14.9;;;;;;;4.63;69.83301;949.4521;;;;
2022/01/25 17:21:55;;;;;;;19.6;13.9;;;;;;;4.59;70.00879;949.4775;;;;
2022/01/25 17:24:18;;;;;;;19.4;12.5;;;;;;;4.33;71.10156;949.515;;;;
2022/01/25 17:26:45;;;;;;;24.6;15.4;;;;;;;4.33;71.50684;949.4539;;;;
2022/01/25 17:29:10;;;;;;;27.6;16.2;;;;;;;4.15;72.17383;949.4562;;;;
2022/01/25 17:31:35;;;;;;;33.7;19.6;;;;;;;3.97;72.51367;949.4196;;;;
2022/01/25 17:34:01;;;;;;;29.4;18.5;;;;;;;3.98;72.24707;949.4583;;;;
2022/01/25 17:36:26;;;;;;;28.8;18.1;;;;;;;4.14;71.75586;949.454;;;;
2022/01/25 17:38:55;;;;;;;26.8;18.2;;;;;;;4.08;71.79199;949.4724;;;;
2022/01/25 17:41:20;;;;;;;25.1;17.2;;;;;;;3.83;72.63672;949.4888;;;;
2022/01/25 17:43:46;;;;;;;28.2;18.7;;;;;;;3.8;72.50684;949.4213;;;;
2022/01/25 17:46:12;;;;;;;26.2;17.8;;;;;;;3.67;72.48535;949.5019;;;;
2022/01/25 17:48:37;;;;;;;24;17.2;;;;;;;3.93;72.06934;949.5517;;;;
2022/01/25 17:51:02;;;;;;;24.1;17;;;;;;;3.99;72.05566;949.5382;;;;
2022/01/25 17:53:31;;;;;;;28.3;18.6;;;;;;;3.64;72.73926;949.5283;;;;
2022/01/25 17:55:57;;;;;;;21.8;15.5;;;;;;;3.69;72.93848;949.6309;;;;
2022/01/25 17:58:24;;;;;;;22.1;15.6;;;;;;;3.53;73.67383;949.6697;;;;
2022/01/25 18:00:49;;;;;;;23.8;16.1;;;;;;;3.49;73.62305;949.6055;;;;
2022/01/25 18:03:14;;;;;;;31.7;21.6;;;;;;;3.49;73.69043;949.6905;;;;
2022/01/25 18:05:41;;;;;;;30.8;21.6;;;;;;;3.2;75.30176;949.7471;;;;
2022/01/25 18:08:06;;;;;;;31.5;23.2;;;;;;;3.32;74.70605;949.6694;;;;
2022/01/25 18:10:31;;;;;;;35.7;24;;;;;;;3.26;74.7832;949.7807;;;;
2022/01/25 18:12:56;;;;;;;38.7;26.1;;;;;;;3.37;74.63574;949.7411;;;;
2022/01/25 18:15:26;;;;;;;41.8;29.4;;;;;;;3.43;74.22949;949.7266;;;;
2022/01/25 18:17:51;;;;;;;42.7;29.9;;;;;;;3.2;74.88672;949.7566;;;;
2022/01/25 18:20:17;;;;;;;58.3;43.2;;;;;;;3.15;74.87695;949.8428;;;;
2022/01/25 18:22:50;;;;;;;52.7;35.4;;;;;;;3.09;74.56445;949.8356;;;;
2022/01/25 18:25:15;;;;;;;62.6;42.6;;;;;;;3.17;74.71289;949.8606;;;;
2022/01/25 18:27:33;;;;;;;57.7;37.9;;;;;;;3.1;74.87793;949.8123;;;;
2022/01/25 18:30:02;;;;;;;42.7;27.7;;;;;;;3.17;74.47754;949.8826;;;;
2022/01/25 18:32:26;;;;;;;34.2;24;;;;;;;2.68;76.66602;949.869;;;;
2022/01/25 18:34:53;;;;;;;30.9;21.3;;;;;;;2.41;78.32031;949.8942;;;;
2022/01/25 18:37:18;;;;;;;40.1;26.4;;;;;;;2.29;78.81348;949.9465;;;;
2022/01/25 18:39:44;;;;;;;34.5;22.9;;;;;;;2.54;77.89648;949.9733;;;;
2022/01/25 18:42:10;;;;;;;30.4;20.2;;;;;;;2.31;78.52539;949.9855;;;;
2022/01/25 18:44:35;;;;;;;27.2;17.9;;;;;;;2.28;78.7334;949.9682;;;;
2022/01/25 18:47:00;;;;;;;24.4;17.4;;;;;;;2.36;78.23145;949.9456;;;;
2022/01/25 18:49:28;;;;;;;67.7;61.5;;;;;;;2.07;79.76953;949.9725;;;;
2022/01/25 18:51:52;;;;;;;62;56.4;;;;;;;1.66;81.68164;949.9658;;;;
2022/01/25 18:54:18;;;;;;;18.9;16.3;;;;;;;1.61;82.61133;950.0183;;;;
2022/01/25 18:56:43;;;;;;;21.3;17.5;;;;;;;1.56;83.18555;950.0366;;;;
2022/01/25 18:59:10;;;;;;;41.6;37.4;;;;;;;1.92;81.95605;949.9913;;;;
2022/01/25 19:01:36;;;;;;;25.1;21.1;;;;;;;1.9;81.33789;949.9942;;;;
2022/01/25 19:04:02;;;;;;;23.4;19;;;;;;;1.92;81.4082;949.9885;;;;
2022/01/25 19:06:29;;;;;;;23.6;16.8;;;;;;;2.13;80.48535;949.9966;;;;
2022/01/25 19:08:54;;;;;;;68.8;37.9;;;;;;;2.26;79.89453;950.0267;;;;
2022/01/25 19:11:19;;;;;;;93.5;50.3;;;;;;;2.33;79.0127;950.0331;;;;
2022/01/25 19:13:46;;;;;;;84.8;47.4;;;;;;;2.5;77.75586;950.0301;;;;
2022/01/25 19:16:11;;;;;;;42.1;27.2;;;;;;;2.11;78.57813;950.0189;;;;
2022/01/25 19:18:36;;;;;;;30.3;21.5;;;;;;;1.67;80.52051;950.0613;;;;
2022/01/25 19:21:02;;;;;;;29.9;20.5;;;;;;;1.9;79.90527;949.9785;;;;
2022/01/25 19:23:27;;;;;;;24.9;17.1;;;;;;;1.92;79.94238;950.0359;;;;
2022/01/25 19:25:58;;;;;;;23.6;16.6;;;;;;;2.08;79.28809;950.0524;;;;
2022/01/25 19:28:26;;;;;;;23.9;17.6;;;;;;;2.05;78.99414;950.0624;;;;
2022/01/25 19:30:51;;;;;;;22.5;16;;;;;;;2.16;79.00098;950.0647;;;;
2022/01/25 19:33:17;;;;;;;18;13.6;;;;;;;2.18;78.7373;950.0662;;;;
2022/01/25 19:35:43;;;;;;;16.1;11.2;;;;;;;1.87;79.45215;949.9945;;;;
2022/01/25 19:38:13;;;;;;;14.8;10.7;;;;;;;1.52;80.90527;950.022;;;;
2022/01/25 19:40:35;;;;;;;11.8;8.8;;;;;;;1.2;82.8457;950.0162;;;;
2022/01/25 19:42:59;;;;;;;10.4;7.4;;;;;;;1.19;83.75879;950.0594;;;;
2022/01/25 19:45:24;;;;;;;10.6;7.8;;;;;;;1.19;83.70313;950.0683;;;;
2022/01/25 19:47:52;;;;;;;8.8;7;;;;;;;1.1;84.24316;950.0192;;;;
2022/01/25 19:50:21;;;;;;;8.4;6.4;;;;;;;1.25;83.57031;950.0701;;;;
2022/01/25 19:52:45;;;;;;;13;9.3;;;;;;;1.38;82.59082;950.0964;;;;
2022/01/25 19:55:11;;;;;;;17.6;11.7;;;;;;;1.29;83.09668;950.0396;;;;
2022/01/25 19:57:33;;;;;;;16.7;10.8;;;;;;;1.38;82.56641;950.0327;;;;
2022/01/25 19:59:58;;;;;;;15.2;11.2;;;;;;;;;;;;;
2022/01/25 20:02:23;;;;;;;14.9;11.1;;;;;;;;;;;;;
2022/01/25 20:04:49;;;;;;;16.1;10.4;;;;;;;;;;;;;
2022/01/25 20:07:13;;;;;;;16.8;10.9;;;;;;;;;;;;;
2022/01/25 20:09:44;;;;;;;15.6;10.8;;;;;;;;;;;;;
2022/01/25 20:12:06;;;;;;;14.9;10.6;;;;;;;;;;;;;
2022/01/25 20:14:31;;;;;;;18.6;13.2;;;;;;;;;;;;;
2022/01/25 20:16:56;;;;;;;18.3;13.7;;;;;;;;;;;;;
2022/01/25 20:19:23;;;;;;;20.1;14.5;;;;;;;;;;;;;
2022/01/25 20:21:54;;;;;;;24.2;17.4;;;;;;;;;;;;;
2022/01/25 20:24:21;;;;;;;26.9;17.7;;;;;;;;;;;;;
2022/01/25 20:26:44;;;;;;;20.8;14.5;;;;;;;;;;;;;
2022/01/25 20:29:09;;;;;;;21;14.4;;;;;;;;;;;;;
2022/01/25 20:31:32;;;;;;;30.2;19.3;;;;;;;;;;;;;
2022/01/25 20:33:54;;;;;;;33.3;20.6;;;;;;;;;;;;;
2022/01/25 20:36:19;;;;;;;28.5;18.3;;;;;;;;;;;;;
2022/01/25 20:38:44;;;;;;;24.4;15.7;;;;;;;;;;;;;
2022/01/25 20:41:09;;;;;;;23.4;16.1;;;;;;;;;;;;;
2022/01/25 20:43:34;;;;;;;24.6;15.8;;;;;;;;;;;;;
2022/01/25 20:46:01;;;;;;;23.5;15.7;;;;;;;;;;;;;
2022/01/25 20:48:26;;;;;;;22.4;14;;;;;;;;;;;;;
2022/01/25 20:50:53;;;;;;;19;13;;;;;;;;;;;;;
2022/01/25 20:53:18;;;;;;;21;13.8;;;;;;;;;;;;;